FW8994 Weather Reports


Display with metric or nautical units.
time (UTC)temp
F
wind
direction
speed
MPH
gust
MPH
rain 1hr
in
rain 24hr
in
rain mn
in
humidity
%
barometer
mb
20210625140441 84 271 4.0 10.0 0.00 0.00 0.00 75 1013.7
20210625135915 83 152 5.0 9.0 0.00 0.00 0.00 77 1013.6
20210625135410 84 320 3.0 8.0 0.00 0.00 0.00 76 1013.8
20210625134908 84 209 4.0 9.0 0.00 0.00 0.00 77 1013.7
20210625134403 83 202 5.0 10.0 0.00 0.00 0.00 78 1013.7
20210625133858 83 229 3.0 9.0 0.00 0.00 0.00 78 1013.5
20210625133354 83 333 3.0 7.0 0.00 0.00 0.00 79 1013.6
20210625132854 82 213 4.0 7.0 0.00 0.00 0.00 80 1013.5
20210625132352 82 161 1.0 6.0 0.00 0.00 0.00 80 1013.7
20210625131848 82 219 2.0 9.0 0.00 0.00 0.00 81 1013.5
20210625131342 82 243 3.0 6.0 0.00 0.00 0.00 81 1013.5
20210625130840 81 224 4.0 6.0 0.00 0.00 0.00 81 1013.4
20210625130337 81 168 3.0 7.0 0.00 0.00 0.00 82 1013.6
20210625125834 80 230 5.0 11.0 0.00 0.00 0.00 83 1013.3
20210625125331 80 248 5.0 11.0 0.00 0.00 0.00 84 1013.5
20210625124825 80 228 2.0 5.0 0.00 0.00 0.00 84 1013.7
20210625124317 80 175 3.0 6.0 0.00 0.00 0.00 85 1013.8
20210625123816 79 232 4.0 6.0 0.00 0.00 0.00 86 1013.7
20210625123300 79 249 3.0 6.0 0.00 0.00 0.00 87 1013.6
20210625122753 79 179 3.0 7.0 0.00 0.00 0.00 87 1013.6
20210625122252 78 224 3.0 6.0 0.00 0.00 0.00 88 1013.5
20210625121748 78 177 0.0 3.0 0.00 0.00 0.00 88 1013.5
20210625121247 78 239 4.0 9.0 0.00 0.00 0.00 89 1013.4
20210625120742 78 219 5.0 8.0 0.00 0.00 0.00 89 1013.4
20210625120236 78 145 2.0 6.0 0.00 0.00 0.00 89 1013.1
20210625115732 77 277 1.0 3.0 0.00 0.00 0.00 90 1013.3
20210625115229 77 180 3.0 6.0 0.00 0.00 0.00 90 1013.3
20210625114727 77 204 2.0 5.0 0.00 0.00 0.00 90 1013.5
20210625114221 77 210 2.0 3.0 0.00 0.00 0.00 90 1013.3
20210625113721 77 205 2.0 6.0 0.00 0.00 0.00 90 1013.3
20210625113216 77 197 2.0 5.0 0.00 0.00 0.00 91 1013.3
20210625112714 77 182 2.0 5.0 0.00 0.00 0.00 90 1013.5
20210625112212 77 233 2.0 3.0 0.00 0.00 0.00 90 1013.7
20210625111709 77 67 1.0 6.0 0.00 0.00 0.00 90 1013.6
20210625111206 77 168 1.0 3.0 0.00 0.00 0.00 90 1013.7
20210625110701 77 226 3.0 6.0 0.00 0.00 0.00 90 1013.6
20210625110157 77 195 3.0 3.0 0.00 0.00 0.00 90 1013.6
20210625105650 78 198 2.0 5.0 0.00 0.00 0.00 90 1013.9
20210625105148 78 305 3.0 5.0 0.00 0.00 0.00 89 1013.9
20210625104645 78 221 2.0 5.0 0.00 0.00 0.00 89 1013.6
20210625104141 78 221 3.0 5.0 0.00 0.00 0.00 89 1013.5
20210625103636 78 195 3.0 5.0 0.00 0.00 0.00 89 1013.5
20210625103132 78 154 1.0 5.0 0.00 0.00 0.00 89 1013.6
20210625102628 78 206 3.0 6.0 0.00 0.00 0.00 89 1013.6
20210625102124 78 296 4.0 7.0 0.00 0.00 0.00 89 1013.5
20210625101621 78 301 1.0 6.0 0.00 0.00 0.00 88 1013.2
20210625101118 78 217 2.0 8.0 0.00 0.00 0.00 88 1013.2
20210625100615 78 206 2.0 6.0 0.00 0.00 0.00 88 1013.3
20210625100110 78 311 3.0 7.0 0.00 0.00 0.00 88 1013.1
20210625095605 78 235 3.0 3.0 0.00 0.00 0.00 88 1013.1
20210625095102 78 259 3.0 3.0 0.00 0.00 0.00 87 1013.3
20210625094558 78 208 2.0 5.0 0.00 0.00 0.00 87 1013.2
20210625094057 79 225 3.0 7.0 0.00 0.00 0.00 87 1013.0
20210625093557 79 278 2.0 6.0 0.00 0.00 0.00 86 1012.8
20210625093052 79 153 2.0 3.0 0.00 0.00 0.00 86 1012.9
20210625092535 79 249 5.0 8.0 0.00 0.00 0.00 86 1013.0
20210625092035 79 181 1.0 7.0 0.00 0.00 0.00 86 1012.8
20210625091532 79 180 3.0 5.0 0.00 0.00 0.00 86 1012.9
20210625091029 79 211 2.0 5.0 0.00 0.00 0.00 86 1013.1
20210625090525 79 275 2.0 3.0 0.00 0.00 0.00 86 1012.7
20210625090023 79 195 4.0 6.0 0.00 0.00 0.00 86 1012.7
20210625085520 80 207 2.0 5.0 0.00 0.00 0.00 86 1012.7
20210625085017 80 191 1.0 3.0 0.00 0.00 0.00 85 1012.8
20210625084510 80 282 5.0 6.0 0.00 0.00 0.00 85 1012.9
20210625084006 80 252 1.0 5.0 0.00 0.00 0.00 85 1012.7
20210625083505 80 244 1.0 3.0 0.00 0.00 0.00 84 1012.8
20210625083001 80 222 4.0 6.0 0.00 0.00 0.00 84 1012.8
20210625082456 80 188 4.0 9.0 0.00 0.00 0.00 84 1013.0
20210625081953 81 180 3.0 6.0 0.00 0.00 0.00 83 1012.9
20210625081447 81 304 4.0 9.0 0.00 0.00 0.00 83 1013.1
20210625080943 81 262 4.0 7.0 0.00 0.00 0.00 82 1013.1
20210625080435 81 193 3.0 6.0 0.00 0.00 0.00 82 1012.8
20210625075930 81 42 5.0 8.0 0.00 0.00 0.00 82 1013.1
20210625075425 81 103 4.0 8.0 0.00 0.00 0.00 82 1012.9
20210625074921 82 284 1.0 2.0 0.00 0.00 0.00 82 1012.9
20210625074414 82 202 3.0 6.0 0.00 0.00 0.00 82 1013.2
20210625073912 82 172 5.0 7.0 0.00 0.00 0.00 82 1012.8
20210625073408 82 344 1.0 3.0 0.00 0.00 0.00 82 1013.0
20210625072903 82 115 4.0 10.0 0.00 0.00 0.00 81 1012.8
20210625072358 82 230 3.0 8.0 0.00 0.00 0.00 81 1012.8
20210625071853 82 198 2.0 5.0 0.00 0.00 0.00 82 1013.1
20210625071353 82 270 6.0 10.0 0.00 0.00 0.00 81 1012.8
20210625070850 82 218 3.0 6.0 0.00 0.00 0.00 81 1013.0
20210625070346 82 226 2.0 7.0 0.00 0.00 0.00 81 1012.9
20210625065845 83 235 3.0 6.0 0.00 0.00 0.00 80 1012.7
20210625065337 83 12 4.0 6.0 0.00 0.00 0.00 80 1012.8
20210625064832 83 127 3.0 6.0 0.00 0.00 0.00 80 1012.8
20210625064330 83 181 4.0 7.0 0.00 0.00 0.00 80 1013.0
20210625063829 83 90 1.0 5.0 0.00 0.00 0.00 80 1012.7
20210625063323 83 50 3.0 5.0 0.00 0.00 0.00 80 1012.7
20210625062823 83 223 1.0 7.0 0.00 0.00 0.00 79 1012.7
20210625062320 84 184 3.0 3.0 0.00 0.00 0.00 79 1012.7
20210625061813 84 219 2.0 7.0 0.00 0.00 0.00 79 1012.7
20210625061303 84 227 4.0 6.0 0.00 0.00 0.00 79 1012.6
20210625060735 84 176 5.0 7.0 0.00 0.00 0.00 79 1012.3
20210625060226 84 214 3.0 7.0 0.00 0.00 0.00 79 1012.7
20210625055725 84 219 2.0 9.0 0.00 0.00 0.00 79 1012.6
20210625055222 84 179 3.0 7.0 0.00 0.00 0.00 79 1012.7
20210625054720 84 47 6.0 8.0 0.00 0.00 0.00 79 1012.4
20210625054215 84 150 3.0 7.0 0.00 0.00 0.00 79 1012.3
20210625053712 84 136 4.0 8.0 0.00 0.00 0.00 79 1012.6
20210625053201 84 204 3.0 7.0 0.00 0.00 0.00 79 1012.4
20210625052659 84 280 3.0 8.0 0.00 0.00 0.00 79 1012.3
20210625052158 84 201 3.0 7.0 0.00 0.00 0.00 79 1012.4
20210625051656 84 314 2.0 5.0 0.00 0.00 0.00 80 1012.1
20210625051156 84 292 6.0 10.0 0.00 0.00 0.00 79 1012.0
20210625050654 84 210 5.0 8.0 0.00 0.00 0.00 79 1012.1
20210625050146 85 161 3.0 7.0 0.00 0.00 0.00 79 1012.0
20210625045645 85 184 3.0 7.0 0.00 0.00 0.00 78 1012.0
20210625045142 85 151 6.0 11.0 0.00 0.00 0.00 78 1012.0
20210625044637 85 183 4.0 8.0 0.00 0.00 0.00 78 1011.7
20210625044131 85 215 2.0 6.0 0.00 0.00 0.00 78 1011.9
20210625043628 85 213 3.0 6.0 0.00 0.00 0.00 78 1011.9
20210625043123 85 322 3.0 6.0 0.00 0.00 0.00 77 1011.6
20210625042617 85 234 5.0 10.0 0.00 0.00 0.00 77 1011.7
20210625042116 85 153 3.0 7.0 0.00 0.00 0.00 76 1011.8
20210625041615 85 122 6.0 10.0 0.00 0.00 0.00 76 1011.6
20210625041109 85 277 3.0 7.0 0.00 0.00 0.00 75 1011.5
20210625040605 86 4 2.0 6.0 0.00 0.00 0.00 75 1011.4
20210625040059 86 157 3.0 6.0 0.00 0.00 0.00 74 1011.7
20210625035559 86 69 3.0 6.0 0.00 0.00 0.00 73 1011.4
20210625035056 86 199 6.0 8.0 0.00 0.00 0.00 73 1011.6
20210625034550 86 156 3.0 6.0 0.00 0.00 0.00 72 1011.7
20210625034042 87 180 2.0 6.0 0.00 0.00 0.00 71 1011.4
20210625033539 87 218 2.0 2.0 0.00 0.00 0.00 71 1011.5
20210625033027 87 80 4.0 7.0 0.00 0.00 0.00 71 1011.3
20210625032525 87 180 3.0 5.0 0.00 0.00 0.00 71 1011.5
20210625032022 87 295 1.0 6.0 0.00 0.00 0.00 70 1011.3
20210625031518 87 67 3.0 5.0 0.00 0.00 0.00 70 1011.1
20210625031017 87 88 2.0 3.0 0.00 0.00 0.00 69 1011.2
20210625030512 87 188 3.0 5.0 0.00 0.00 0.00 69 1011.3
20210625030010 87 186 3.0 3.0 0.00 0.00 0.00 68 1011.2
20210625025504 87 11 3.0 6.0 0.00 0.00 0.00 68 1011.1
20210625025003 88 122 2.0 6.0 0.00 0.00 0.00 68 1011.1
20210625024502 88 186 2.0 2.0 0.00 0.00 0.00 67 1011.0
20210625023952 88 168 5.0 7.0 0.00 0.00 0.00 67 1011.0
20210625023447 88 218 3.0 5.0 0.00 0.00 0.00 67 1011.1
20210625022942 88 60 3.0 5.0 0.00 0.00 0.00 67 1011.0
20210625022439 88 188 2.0 3.0 0.00 0.00 0.00 66 1010.9
20210625021937 88 119 2.0 5.0 0.00 0.00 0.00 66 1011.0
20210625021429 88 128 2.0 5.0 0.00 0.00 0.00 66 1011.3
20210625020923 89 253 2.0 7.0 0.00 0.00 0.00 65 1011.0
20210625020420 89 157 1.0 6.0 0.00 0.00 0.00 65 1011.1
20210625015914 89 210 3.0 7.0 0.00 0.00 0.00 65 1011.1
20210625015412 89 66 1.0 5.0 0.00 0.00 0.00 65 1011.1
20210625014912 89 118 1.0 3.0 0.00 0.00 0.00 64 1011.1
20210625014409 90 80 0.0 2.0 0.00 0.00 0.00 63 1010.8
20210625013859 90 276 1.0 2.0 0.00 0.00 0.00 62 1010.9
20210625013356 90 156 1.0 2.0 0.00 0.00 0.00 61 1011.1
20210625012855 91 110 2.0 2.0 0.00 0.00 0.00 60 1010.9
20210625012354 91 219 2.0 3.0 0.00 0.00 0.00 60 1010.8
20210625011852 91 164 2.0 5.0 0.00 0.00 0.00 59 1011.1
20210625011347 92 195 3.0 5.0 0.00 0.00 0.00 58 1011.1
20210625010844 92 214 2.0 7.0 0.00 0.00 0.00 56 1011.0
20210625010337 93 219 3.0 6.0 0.00 0.00 0.00 55 1011.0
20210625005836 93 195 3.0 3.0 0.00 0.00 0.00 54 1011.1
20210625005328 94 214 3.0 7.0 0.00 0.00 0.00 53 1011.2
20210625004823 94 231 2.0 8.0 0.00 0.00 0.00 53 1011.3
20210625004322 94 220 3.0 6.0 0.00 0.00 0.00 54 1011.0
20210625003812 94 222 1.0 5.0 0.00 0.00 0.00 53 1011.0
20210625003308 95 244 1.0 3.0 0.00 0.00 0.00 52 1011.0
20210625002805 95 218 2.0 5.0 0.00 0.00 0.00 51 1011.0
20210625002258 95 170 3.0 5.0 0.00 0.00 0.00 50 1010.9
20210625001757 95 225 4.0 7.0 0.00 0.00 0.00 51 1010.9
20210625001257 95 184 3.0 6.0 0.00 0.00 0.00 51 1010.4
20210625000752 95 240 2.0 3.0 0.00 0.00 0.00 51 1010.8
20210625000248 95 203 2.0 6.0 0.00 0.00 0.00 50 1010.8
20210624235740 96 195 5.0 7.0 0.00 0.00 0.00 50 1010.5
20210624235238 96 234 3.0 8.0 0.00 0.00 0.00 50 1010.7
20210624234729 96 345 2.0 6.0 0.00 0.00 0.00 49 1010.8
20210624234226 96 120 4.0 6.0 0.00 0.00 0.00 49 1010.9
20210624233725 96 192 4.0 7.0 0.00 0.00 0.00 50 1010.8
20210624233224 96 275 3.0 6.0 0.00 0.00 0.00 49 1010.9
20210624232718 97 185 4.0 9.0 0.00 0.00 0.00 48 1010.7
20210624232215 97 157 3.0 5.0 0.00 0.00 0.00 47 1010.8
20210624231713 97 193 3.0 11.0 0.00 0.00 0.00 47 1010.9
20210624231205 97 328 3.0 8.0 0.00 0.00 0.00 47 1011.1
20210624230703 97 213 4.0 6.0 0.00 0.00 0.00 47 1011.1
20210624230158 97 168 2.0 8.0 0.00 0.00 0.00 46 1010.9
20210624225654 97 213 3.0 7.0 0.00 0.00 0.00 47 1011.1
20210624225150 97 235 5.0 7.0 0.00 0.00 0.00 46 1010.9
20210624224647 97 193 8.0 10.0 0.00 0.00 0.00 46 1011.0
20210624224140 96 216 5.0 8.0 0.00 0.00 0.00 47 1011.1
20210624223637 97 304 1.0 8.0 0.00 0.00 0.00 47 1011.3
20210624223136 96 125 4.0 8.0 0.00 0.00 0.00 45 1011.4
20210624222632 97 206 3.0 8.0 0.00 0.00 0.00 46 1011.3
20210624222127 96 206 4.0 11.0 0.00 0.00 0.00 47 1011.3
20210624221622 96 193 7.0 10.0 0.00 0.00 0.00 47 1011.2
20210624221118 97 219 4.0 7.0 0.00 0.00 0.00 47 1011.5
20210624220616 97 236 5.0 9.0 0.00 0.00 0.00 46 1011.5
20210624220111 98 321 6.0 11.0 0.00 0.00 0.00 45 1011.7
20210624215608 98 242 6.0 9.0 0.00 0.00 0.00 45 1011.4
20210624215103 98 229 6.0 8.0 0.00 0.00 0.00 44 1011.5
20210624214559 98 234 4.0 9.0 0.00 0.00 0.00 45 1011.7
20210624214055 98 264 5.0 13.0 0.00 0.00 0.00 45 1011.8
20210624213551 98 131 4.0 10.0 0.00 0.00 0.00 45 1011.8
20210624213047 98 274 3.0 8.0 0.00 0.00 0.00 46 1012.1
20210624212540 98 221 6.0 9.0 0.00 0.00 0.00 46 1012.0
20210624212035 98 27 3.0 9.0 0.00 0.00 0.00 48 1012.0
20210624211530 99 345 3.0 9.0 0.00 0.00 0.00 47 1012.2
20210624211022 98 284 2.0 8.0 0.00 0.00 0.00 47 1012.4
20210624210521 97 224 3.0 6.0 0.00 0.00 0.00 47 1012.4
20210624210015 98 212 5.0 8.0 0.00 0.00 0.00 46 1012.5
20210624205511 97 266 5.0 8.0 0.00 0.00 0.00 48 1012.4
20210624205011 98 299 3.0 10.0 0.00 0.00 0.00 48 1012.5
20210624204508 97 219 3.0 7.0 0.00 0.00 0.00 48 1012.4
20210624204003 97 310 4.0 9.0 0.00 0.00 0.00 49 1012.6
20210624203456 97 101 1.0 6.0 0.00 0.00 0.00 48 1012.4
20210624202954 97 210 5.0 8.0 0.00 0.00 0.00 49 1012.5
20210624202452 96 76 3.0 6.0 0.00 0.00 0.00 50 1012.5
20210624201947 97 243 4.0 7.0 0.00 0.00 0.00 49 1012.7
20210624201443 98 220 4.0 7.0 0.00 0.00 0.00 48 1012.6
20210624200941 97 222 3.0 7.0 0.00 0.00 0.00 49 1012.8
20210624200440 97 196 6.0 9.0 0.00 0.00 0.00 49 1013.1
20210624195935 97 294 5.0 7.0 0.00 0.00 0.00 50 1013.0
20210624195430 97 329 2.0 5.0 0.00 0.00 0.00 49 1013.1
20210624194927 96 226 5.0 7.0 0.00 0.00 0.00 49 1013.1
20210624194424 96 306 3.0 8.0 0.00 0.00 0.00 49 1013.2
20210624193920 96 90 3.0 8.0 0.00 0.00 0.00 50 1013.3
20210624193415 96 253 6.0 10.0 0.00 0.00 0.00 50 1013.1
20210624192912 96 213 6.0 10.0 0.00 0.00 0.00 50 1013.3
20210624192409 96 345 4.0 6.0 0.00 0.00 0.00 51 1013.3
20210624191848 95 110 4.0 7.0 0.00 0.00 0.00 51 1013.5
20210624191347 96 233 8.0 16.0 0.00 0.00 0.00 51 1013.6
20210624190843 97 216 4.0 8.0 0.00 0.00 0.00 51 1013.9
20210624190340 96 4 2.0 7.0 0.00 0.00 0.00 51 1013.8
20210624185838 95 136 5.0 9.0 0.00 0.00 0.00 51 1013.7
20210624185333 95 255 5.0 9.0 0.00 0.00 0.00 52 1013.4
20210624184832 95 247 7.0 11.0 0.00 0.00 0.00 52 1013.7
20210624184329 95 243 6.0 10.0 0.00 0.00 0.00 52 1013.7
20210624183823 96 162 3.0 8.0 0.00 0.00 0.00 49 1013.7
20210624183320 95 302 4.0 6.0 0.00 0.00 0.00 53 1013.7
20210624182817 95 229 5.0 10.0 0.00 0.00 0.00 52 1013.9
20210624182306 94 270 5.0 8.0 0.00 0.00 0.00 52 1013.9
20210624181757 94 239 4.0 13.0 0.00 0.00 0.00 53 1014.0
20210624181255 94 182 6.0 9.0 0.00 0.00 0.00 53 1014.0
20210624180751 93 292 4.0 9.0 0.00 0.00 0.00 53 1013.9
20210624180248 94 177 4.0 7.0 0.00 0.00 0.00 53 1014.0
20210624175744 94 179 5.0 9.0 0.00 0.00 0.00 53 1013.9
20210624175244 94 182 3.0 6.0 0.00 0.00 0.00 53 1014.1
20210624174734 93 41 3.0 7.0 0.00 0.00 0.00 53 1014.1
20210624174234 94 228 6.0 7.0 0.00 0.00 0.00 54 1013.9
20210624173733 94 235 5.0 8.0 0.00 0.00 0.00 53 1014.1
20210624173229 94 255 3.0 7.0 0.00 0.00 0.00 54 1014.2
20210624172729 93 111 2.0 7.0 0.00 0.00 0.00 58 1014.3
20210624172225 92 249 2.0 8.0 0.00 0.00 0.00 57 1014.2
20210624171719 91 209 4.0 10.0 0.00 0.00 0.00 57 1014.4
20210624171214 92 258 4.0 7.0 0.00 0.00 0.00 56 1014.5
20210624170714 91 182 3.0 7.0 0.00 0.00 0.00 57 1014.6
20210624170209 91 233 5.0 9.0 0.00 0.00 0.00 59 1014.7
20210624165704 91 212 3.0 7.0 0.00 0.00 0.00 56 1014.5
20210624165159 91 306 6.0 13.0 0.00 0.00 0.00 60 1014.7
20210624164656 91 166 3.0 7.0 0.00 0.00 0.00 59 1014.5
20210624164155 91 214 4.0 10.0 0.00 0.00 0.00 60 1014.6
20210624163652 91 110 3.0 7.0 0.00 0.00 0.00 59 1014.9
20210624163147 91 176 4.0 8.0 0.00 0.00 0.00 60 1015.0
20210624162642 90 160 3.0 6.0 0.00 0.00 0.00 61 1014.9
20210624162137 90 218 4.0 9.0 0.00 0.00 0.00 62 1014.7
20210624161637 90 228 6.0 8.0 0.00 0.00 0.00 62 1014.9
20210624161136 89 190 7.0 10.0 0.00 0.00 0.00 62 1015.0
20210624160628 89 118 2.0 7.0 0.00 0.00 0.00 62 1014.8
20210624160127 88 44 3.0 8.0 0.00 0.00 0.00 63 1014.8
20210624155624 88 188 4.0 10.0 0.00 0.00 0.00 63 1015.0
20210624155121 88 312 3.0 6.0 0.00 0.00 0.00 64 1014.9
20210624154620 88 161 6.0 9.0 0.00 0.00 0.00 64 1014.9
20210624154114 87 240 4.0 9.0 0.00 0.00 0.00 66 1014.9
20210624153609 87 138 8.0 15.0 0.00 0.00 0.00 67 1014.8
20210624153057 88 118 1.0 7.0 0.00 0.00 0.00 65 1015.0
20210624152557 87 296 4.0 9.0 0.00 0.00 0.00 67 1015.0
20210624152046 87 247 3.0 5.0 0.00 0.00 0.00 67 1015.0
20210624151546 86 185 4.0 9.0 0.00 0.00 0.00 69 1015.1
20210624151038 85 117 5.0 9.0 0.00 0.00 0.00 69 1015.0
20210624150523 85 212 5.0 13.0 0.00 0.00 0.00 70 1014.8
20210624150021 85 200 5.0 8.0 0.00 0.00 0.00 70 1015.2
20210624145449 86 224 7.0 14.0 0.00 0.00 0.00 69 1015.1
20210624144945 86 228 4.0 9.0 0.00 0.00 0.00 69 1015.3
20210624144443 86 219 5.0 8.0 0.00 0.00 0.00 69 1015.1
20210624143937 85 224 5.0 8.0 0.00 0.00 0.00 70 1015.1
20210624143433 85 207 5.0 9.0 0.00 0.00 0.00 71 1015.3
20210624142927 85 90 3.0 9.0 0.00 0.00 0.00 71 1015.5
20210624142425 84 157 4.0 7.0 0.00 0.00 0.00 72 1015.4
20210624141921 84 193 6.0 10.0 0.00 0.00 0.00 72 1015.1
20210624141419 84 78 3.0 7.0 0.00 0.00 0.00 72 1015.0
20210624140915 83 245 5.0 9.0 0.00 0.00 0.00 73 1015.0